• Join FlightAware (Why Join?)
  • Login
  • US Flag 
05:24AM EDT


 

Airport Tracker/Info


-or-


 

Live Flight TrackerFlight Track Log ✈ AWI3725 ✈ 03-May-2014 ✈ KCMH - KCLT

Flight Track Log - Related Links

Times and Time Zones

All times are in EDT time to prevent confusion due to time zone crossing. See the AWI3725 flight status page for this flight to view local times or setup timezone preferences in your user account.

Time Position Orientation Groundspeed Altitude Reporting Facility
EDT Latitude Longitude Course Direction KTS MPH feet Rate Location/Type
01:59PM 40.0047 -82.9267 278° West 145 167 2,300  Level Indianapolis Center
02:00PM 40.0083 -82.9622 278° West 158 182 3,600 2,580 Climbing Indianapolis Center
02:00PM 40.0094 -82.9875 273° West 170 196 4,900 3,000 Climbing Indianapolis Center
02:01PM 39.9881 -83.0139 223° Southwest 189 217 6,700 2,400 Climbing Indianapolis Center
02:02PM 39.5982 -82.7197 170° South  Level Estimated
02:02PM 39.9297 -82.9717 151° Southeast 237 273 9,100  Level Indianapolis Center
02:03PM 39.4975 -82.7586 197° South  Level FlightAware Approximate
02:03PM 39.8519 -82.9475 167° South 283 326 11,100  Level Indianapolis Center
02:04PM 39.3982 -82.7141 173° South  Level Estimated
02:04PM 39.7656 -82.9272 170° South 307 353 13,000  Level Indianapolis Center
02:05PM 39.6706 -82.9039 169° South 334 384 15,100 2,220 Climbing Indianapolis Center
02:06PM 39.5508 -82.8742 169° South 357 411 17,600 2,160 Climbing Indianapolis Center
02:07PM 39.4492 -82.8481 169° South 366 421 19,700 1,620 Climbing Indianapolis Center
02:08PM 39.3428 -82.8222 169° South 381 438 21,000 600 Climbing Indianapolis Center
02:09PM 39.2361 -82.7958 169° South 387 445 21,000  Level Indianapolis Center
02:10PM 39.1378 -82.7717 169° South 387 445 21,000  Level Indianapolis Center
02:11PM 39.0350 -82.7483 170° South 380 437 21,000  Level Indianapolis Center
02:12PM 38.9136 -82.7175 169° South 373 429 21,000  Level Indianapolis Center
02:13PM 38.8131 -82.6936 170° South 373 429 21,000  Level Indianapolis Center
02:14PM 38.7097 -82.6672 169° South 376 433 21,000  Level Indianapolis Center
02:15PM 38.6106 -82.6428 169° South 378 435 21,000  Level Indianapolis Center
02:16PM 38.5097 -82.6178 169° South 375 432 21,000  Level Indianapolis Center
02:17PM 38.3881 -82.5886 169° South 375 432 21,000  Level Indianapolis Center
02:18PM 38.2861 -82.5636 169° South 375 432 21,000  Level Indianapolis Center
02:19PM 38.1844 -82.5397 170° South 375 432 21,000  Level Indianapolis Center
02:20PM 38.0836 -82.5153 169° South 373 429 21,000  Level Indianapolis Center
02:21PM 37.9819 -82.4925 170° South 372 428 21,000  Level Indianapolis Center
02:22PM 37.8808 -82.4672 169° South 371 427 21,000  Level Indianapolis Center
02:23PM 37.7797 -82.4433 169° South 371 427 21,000  Level Indianapolis Center
02:24PM 37.6792 -82.4197 169° South 370 426 21,000  Level Indianapolis Center
02:25PM 37.5617 -82.3914 169° South 369 425 21,000  Level Indianapolis Center
02:26PM 37.4611 -82.3675 169° South 369 425 21,000  Level Indianapolis Center
02:28PM 37.3603 -82.3439 169° South 369 425 21,000  Level Indianapolis Center
02:29PM 37.2589 -82.3206 170° South 369 425 21,000  Level Indianapolis Center
02:30PM 37.1589 -82.2964 169° South 368 423 21,000  Level Indianapolis Center
02:31PM 37.0586 -82.2722 169° South 368 423 21,000  Level Indianapolis Center
02:32PM 36.9583 -82.2503 170° South 367 422 21,000  Level Indianapolis Center
02:33PM 36.8592 -82.2269 169° South 364 419 21,000  Level Indianapolis Center
02:34PM 36.7611 -82.2039 169° South 362 417 21,000  Level Indianapolis Center
02:35PM 36.6633 -82.1819 170° South 359 413 21,000  Level Indianapolis Center
02:36PM 36.5569 -82.1572 169° South 358 412 21,000  Level Atlanta Center
02:37PM 36.4586 -82.1364 170° South 358 412 21,000  Level Atlanta Center
02:38PM 36.3639 -82.0844 156° South 358 412 21,000 -120 Level Atlanta Center
02:39PM 36.2733 -82.0247 152° Southeast 363 418 20,800 -840 Descending Atlanta Center
02:40PM 36.1889 -81.9678 151° Southeast 373 429 19,400 -1,500 Descending Atlanta Center
02:41PM 36.0833 -81.8986 152° Southeast 401 461 17,900 -1,500 Descending Atlanta Center
02:42PM 35.9778 -81.8294 152° Southeast 421 484 16,400 -1,500 Descending Atlanta Center
02:43PM 35.8744 -81.7606 152° Southeast 421 484 15,000 -1,560 Descending Atlanta Center
02:44PM 35.7647 -81.6919 153° Southeast 405 466 13,400 -1,440 Descending Atlanta Center
02:45PM 35.6758 -81.6356 153° Southeast 405 466 12,200 -780 Descending Atlanta Center
02:45PM 35.5975 -81.5717 146° Southeast 320 368 12,000 -120 Descending Atlanta Center
02:47PM 35.5372 -81.4842 130° Southeast 327 376 12,000  Level Atlanta Center
02:48PM 35.4811 -81.3967 128° Southeast 334 384 12,000 -600 Level Atlanta Center
02:49PM 35.4208 -81.3067 129° Southeast 325 374 10,900 -1,320 Descending Atlanta Center
02:49PM 35.3669 -81.2297 131° Southeast 314 361 9,500 -960 Descending Atlanta Center
02:51PM 35.3042 -81.1375 130° Southeast 320 368 9,000 -240 Descending Atlanta Center
02:52PM 35.2483 -81.0733 137° Southeast 305 351 9,000 -600 Level Atlanta Center
02:53PM 35.1794 -81.0683 177° South 256 295 7,900 -1,020 Descending Atlanta Center
02:54PM 35.1064 -81.0606 175° South 227 261 6,800 -1,020 Descending Atlanta Center
02:55PM 35.0394 -81.0556 177° South 216 249 5,700 -960 Descending Atlanta Center
02:56PM 34.9908 -81.0344 160° South 210 242 5,000 -780 Descending Atlanta Center
02:57PM 35.0039 -80.9656 77° East 208 239 4,300 -600 Descending Atlanta Center
02:58PM 35.0558 -80.9558 North 179 206 3,800 -780 Descending Atlanta Center
02:59PM 35.1058 -80.9617 355° North 178 205 2,800 -1,080 Descending Atlanta Center
03:00PM 35.1542 -80.9675 354° North 151 174 1,700 -900 Descending Atlanta Center
03:01PM 35.1958 -80.9686 359° North 146 168 1,000 -720 Descending Atlanta Center
03:03PM 35.2137 -80.9491 175° South  Level Estimated